Impacts METAR Board
IDs:

KPHL - Philadelphia Intl, PA, US

Updated at: 1300 UTC 25 Jun 2019
Potential Impact None Slight Moderate High
Time 25/01Z 25/02Z 25/03Z 25/04Z 25/05Z 25/06Z 25/07Z 25/08Z 25/09Z 25/10Z 25/11Z 25/12Z 25/13Z
Temp79 77 77 75 75 74 74 74 74 74 75 76 78
Dewpt66 67 68 69 69 69 70 70 70 71 71 71 72
Altim29.81 29.82 29.82 29.82 29.81 29.80 29.79 29.78 29.79 29.78 29.80 29.81 29.83
VIS10 10 10 10 10 10 10 10 10 10 10 10 10
CIG220 160 -- 130 300 -- 55 180 55 130 15 22 43
CoverBKNOVCSCTOVCOVCSCTBKNOVCOVCOVCOVCOVCOVC
FltCatVFRVFRVFRVFRVFRVFRVFRVFRVFRVFRMVFRMVFRVFR
WX------------VCTS------------
WDir160170170160190190160160180140180200250
WSpd6 6 4 5 3 3 3 3 4 4 5 6 7
WGst-- -- -- -- -- -- -- -- -- -- -- -- --
Raw hourly METARs
KPHL 250054Z 16006KT 10SM FEW180 BKN220 BKN250 26/19 A2981 RMK AO2 SLP095 T02610189 $
KPHL 250154Z 17006KT 10SM BKN160 OVC210 25/19 A2982 RMK AO2 SLP099 T02500194 $
KPHL 250254Z 17004KT 10SM SCT180 SCT300 25/20 A2982 RMK AO2 SLP098 T02500200 50005 $
KPHL 250354Z 16005KT 10SM BKN130 BKN180 OVC250 24/21 A2982 RMK AO2 SLP098 T02390206 $
KPHL 250454Z 19003KT 10SM FEW180 SCT240 OVC300 24/21 A2981 RMK AO2 SLP093 T02390206 403000183 $
KPHL 250554Z 19003KT 10SM FEW180 SCT240 SCT300 23/21 A2980 RMK AO2 SLP091 T02330206 10278 20233 58006 $
KPHL 250705Z 16003KT 10SM VCTS SCT040 BKN055 BKN070 23/21 A2979 RMK AO2 OCNL LTGIC DSNT NE CB DSNT NE MOV NE T02330211 $
KPHL 250754Z 16003KT 10SM FEW120 BKN180 OVC250 23/21 A2978 RMK AO2 LTG DSNT NE AND E SLP083 T02330211 $
KPHL 250854Z 18004KT 10SM SCT022 BKN055 BKN100 OVC170 23/21 A2979 RMK AO2 SLP087 T02330211 55004 $
KPHL 250954Z 14004KT 10SM FEW015 SCT020 SCT040 OVC130 23/22 A2978 RMK AO2 RAB34E51 SLP084 P0000 T02330217 $
KPHL 251105Z 18005KT 10SM BKN015 BKN150 OVC240 24/22 A2980 RMK AO2 T02390217 $
KPHL 251154Z 20006KT 10SM SCT013 BKN022 BKN035 OVC140 24/22 A2981 RMK AO2 SLP093 60000 T02440217 10244 20233 53006
KPHL 251254Z 25007KT 10SM FEW012 SCT022 BKN043 OVC140 26/22 A2983 RMK AO2 SLP100 T02560222



Page loaded:  13:30 UTC  |   06:30 AM Pacific  |   07:30 AM Mountain  |   08:30 AM Central  |   09:30 AM Eastern

 

ADVISORIES

FORECASTS

FORECASTS

OBSERVATIONS

USER TOOLS

ABOUT US